Terminal Aerodrome Forecast
Issued by NWS Cleveland, OH

Home | Current Version | Previous Version | Text Only | Print | Product List | Glossary Off
Versions: 1 2 3 4 5 6 7 8 9 10 11 12 13 14 15 16 17

523
FTUS41 KCLE 022335
TAFCAK
TAF
KCAK 022335Z 0300/0324 01008KT P6SM OVC012
     FM030500 02003KT 4SM BR OVC007
     FM031500 35006KT P6SM SCT007 OVC012=

USA.gov is the U.S. government's official web portal to all federal, state and local government web resources and services.